Language selection

My Weather Profile Weather Topics  | 

Northwest Labrador Sea: Past 24 Hour Conditions

 

Hopedale

04:00 PM ADT 23 July 2021
Disclaimer

This table is a summary of hourly weather conditions for the past 24 hours.
Please note that these observations might not always be representative of weather conditions over their associated marine area.

Date / Time
(ADT)
Wind(knots) Conditions Visibility(km) Pressure(kPa) Air tempC) Relative humidity(%) Dew pointC)
23 July 2021
16:00 7 N/A N/A 101.7 15 67 9
15:00 5 N/A N/A 101.8 14 73 10
14:00 3 N/A N/A 101.8 14 68 9
13:00 6 N/A N/A 101.8 13 75 9
12:00 3 N/A N/A 101.9 13 70 8
11:00 4 N/A N/A 101.9 12 68 6
10:00 N/A N/A N/A N/A N/A N/A N/A
9:00 5 N/A N/A 101.9 11 73 6
8:00 5 N/A N/A 101.8 11 74 6
7:00 5 N/A N/A 101.8 10 76 6
6:00 6 N/A N/A 101.8 10 80 6
5:00 6 N/A N/A 101.7 8 83 6
4:00 4 N/A N/A 101.7 8 84 6
3:00 7 N/A N/A 101.7 9 85 6
2:00 8 N/A N/A 101.7 9 85 7
1:00 11 N/A N/A 101.7 9 86 7
0:00 9 gust 16 N/A N/A 101.7 10 90 8
22 July 2021
23:00 8 N/A N/A 101.6 10 90 8
22:00 13 N/A N/A 101.5 10 89 8
21:00 11 gust 16 N/A N/A 101.5 11 87 9
20:00 10 N/A N/A 101.4 15 75 11
19:00 3 N/A N/A 101.3 17 66 11
18:00 5 N/A N/A 101.3 17 70 11
17:00 3 N/A N/A 101.3 17 64 10
16:00 5 N/A N/A 101.2 19 57 10

Zoom-in to make a selection

Map of Atlantic - Labrador marine weather areas Kangiqsualujjuaq Airport Cape Kakkiviak Cape Kiglapait Cartwright Airport CFB Goose Bay Hopedale Mary's Harbour Nain Airport Makkovik Airport Saglek Tukialik Bay
Legend:
buoy Buoy
land station Land Station

Atlantic - Labrador Area

Another Region

What we are doing

Date modified: